sensor_id;sensor_type;location;lat;lon;timestamp;pressure;altitude;pressure_sealevel;temperature;humidity
75072;BME280;63651;55.728;38.022;2023-03-14T00:04:19;99249.59;;;13.61;32.51
75072;BME280;63651;55.728;38.022;2023-03-14T00:09:38;99229.78;;;13.66;31.93
75072;BME280;63651;55.728;38.022;2023-03-14T00:14:58;99217.44;;;13.63;31.51
75072;BME280;63651;55.728;38.022;2023-03-14T00:20:19;99199.41;;;13.62;32.18
75072;BME280;63651;55.728;38.022;2023-03-14T00:25:39;99193.47;;;13.65;32.83
75072;BME280;63651;55.728;38.022;2023-03-14T00:30:58;99184.59;;;13.70;31.37
75072;BME280;63651;55.728;38.022;2023-03-14T00:36:18;99186.13;;;13.66;31.40
75072;BME280;63651;55.728;38.022;2023-03-14T00:41:48;99126.00;;;13.31;31.42
75072;BME280;63651;55.728;38.022;2023-03-14T00:47:07;99155.63;;;13.57;31.61
75072;BME280;63651;55.728;38.022;2023-03-14T00:52:27;99167.84;;;13.66;31.45
75072;BME280;63651;55.728;38.022;2023-03-14T00:57:28;99162.75;;;13.70;31.04
75072;BME280;63651;55.728;38.022;2023-03-14T01:02:29;99165.59;;;13.63;31.23
75072;BME280;63651;55.728;38.022;2023-03-14T01:07:30;99160.84;;;13.70;30.88
75072;BME280;63651;55.728;38.022;2023-03-14T01:12:31;99125.13;;;13.60;31.24
75072;BME280;63651;55.728;38.022;2023-03-14T01:17:33;99140.06;;;13.58;31.09
75072;BME280;63651;55.728;38.022;2023-03-14T01:22:53;99128.09;;;13.59;31.34
75072;BME280;63651;55.728;38.022;2023-03-14T01:28:12;99122.03;;;13.68;31.11
75072;BME280;63651;55.728;38.022;2023-03-14T01:33:32;99134.25;;;13.66;31.05
75072;BME280;63651;55.728;38.022;2023-03-14T01:38:34;99114.09;;;13.67;31.30
75072;BME280;63651;55.728;38.022;2023-03-14T01:43:36;99090.59;;;13.66;30.95
75072;BME280;63651;55.728;38.022;2023-03-14T01:53:48;99054.75;;;13.51;31.27
75072;BME280;63651;55.728;38.022;2023-03-14T01:58:51;99066.28;;;13.64;31.45
75072;BME280;63651;55.728;38.022;2023-03-14T02:03:57;99016.09;;;13.42;31.75
75072;BME280;63651;55.728;38.022;2023-03-14T02:09:00;99054.03;;;13.67;31.54
75072;BME280;63651;55.728;38.022;2023-03-14T02:14:03;99007.66;;;13.43;31.78
75072;BME280;63651;55.728;38.022;2023-03-14T02:19:05;99034.94;;;13.78;31.78
75072;BME280;63651;55.728;38.022;2023-03-14T02:29:28;99008.13;;;13.75;32.25
75072;BME280;63651;55.728;38.022;2023-03-14T02:34:31;98999.91;;;13.87;31.74
75072;BME280;63651;55.728;38.022;2023-03-14T02:39:39;98975.75;;;13.56;32.42
75072;BME280;63651;55.728;38.022;2023-03-14T02:50:19;98906.19;;;13.70;32.56
75072;BME280;63651;55.728;38.022;2023-03-14T02:55:22;98929.66;;;13.83;32.74
75072;BME280;63651;55.728;38.022;2023-03-14T03:00:24;98918.88;;;13.76;32.57
75072;BME280;63651;55.728;38.022;2023-03-14T03:05:25;98925.59;;;13.85;32.66
75072;BME280;63651;55.728;38.022;2023-03-14T03:10:27;98908.88;;;13.82;32.90
75072;BME280;63651;55.728;38.022;2023-03-14T03:15:29;98901.91;;;13.74;33.01
75072;BME280;63651;55.728;38.022;2023-03-14T03:20:30;98903.22;;;13.71;33.31
75072;BME280;63651;55.728;38.022;2023-03-14T03:25:31;98902.59;;;13.81;33.00
75072;BME280;63651;55.728;38.022;2023-03-14T03:30:33;98909.19;;;13.97;32.74
75072;BME280;63651;55.728;38.022;2023-03-14T03:35:34;98901.63;;;13.87;32.95
75072;BME280;63651;55.728;38.022;2023-03-14T03:40:35;98890.22;;;13.90;33.62
75072;BME280;63651;55.728;38.022;2023-03-14T03:45:36;98875.72;;;13.90;33.79
75072;BME280;63651;55.728;38.022;2023-03-14T03:50:44;98854.22;;;13.93;33.76
75072;BME280;63651;55.728;38.022;2023-03-14T03:55:45;98855.25;;;14.04;33.77
75072;BME280;63651;55.728;38.022;2023-03-14T04:00:46;98837.78;;;14.05;33.33
75072;BME280;63651;55.728;38.022;2023-03-14T04:05:58;98821.22;;;13.95;34.01
75072;BME280;63651;55.728;38.022;2023-03-14T04:11:01;98822.53;;;13.92;33.70
75072;BME280;63651;55.728;38.022;2023-03-14T04:16:02;98827.94;;;14.04;33.73
75072;BME280;63651;55.728;38.022;2023-03-14T04:21:03;98833.16;;;14.05;33.75
75072;BME280;63651;55.728;38.022;2023-03-14T04:26:04;98821.41;;;14.05;33.45
75072;BME280;63651;55.728;38.022;2023-03-14T04:31:10;98761.13;;;13.78;33.81
75072;BME280;63651;55.728;38.022;2023-03-14T04:36:12;98817.38;;;14.24;33.17
75072;BME280;63651;55.728;38.022;2023-03-14T04:41:13;98804.28;;;14.26;33.65
75072;BME280;63651;55.728;38.022;2023-03-14T04:46:14;98787.53;;;14.34;33.79
75072;BME280;63651;55.728;38.022;2023-03-14T04:51:15;98794.72;;;14.40;33.11
75072;BME280;63651;55.728;38.022;2023-03-14T04:56:16;98778.25;;;14.35;33.43
75072;BME280;63651;55.728;38.022;2023-03-14T05:01:17;98770.06;;;14.52;33.43
75072;BME280;63651;55.728;38.022;2023-03-14T05:06:18;98752.16;;;14.61;33.90
75072;BME280;63651;55.728;38.022;2023-03-14T05:11:19;98729.94;;;14.75;34.46
75072;BME280;63651;55.728;38.022;2023-03-14T05:16:20;98762.38;;;15.75;33.26
75072;BME280;63651;55.728;38.022;2023-03-14T05:21:21;98742.22;;;15.37;34.41
75072;BME280;63651;55.728;38.022;2023-03-14T05:26:23;98740.09;;;15.45;34.03
75072;BME280;63651;55.728;38.022;2023-03-14T05:31:24;98688.91;;;15.18;33.59
75072;BME280;63651;55.728;38.022;2023-03-14T05:36:25;98735.97;;;15.42;33.30
75072;BME280;63651;55.728;38.022;2023-03-14T05:41:26;98722.03;;;15.44;33.29
75072;BME280;63651;55.728;38.022;2023-03-14T05:46:27;98725.81;;;15.86;32.66
75072;BME280;63651;55.728;38.022;2023-03-14T05:51:28;98727.63;;;15.76;32.55
75072;BME280;63651;55.728;38.022;2023-03-14T05:56:29;98729.72;;;15.95;32.73
75072;BME280;63651;55.728;38.022;2023-03-14T06:01:30;98742.53;;;15.90;32.76
75072;BME280;63651;55.728;38.022;2023-03-14T06:06:31;98732.09;;;15.87;32.72
75072;BME280;63651;55.728;38.022;2023-03-14T06:11:32;98755.38;;;15.84;33.02
75072;BME280;63651;55.728;38.022;2023-03-14T06:16:33;98751.84;;;15.89;33.08
75072;BME280;63651;55.728;38.022;2023-03-14T06:21:34;98743.31;;;15.85;33.14
75072;BME280;63651;55.728;38.022;2023-03-14T06:26:36;98737.31;;;15.88;32.82
75072;BME280;63651;55.728;38.022;2023-03-14T06:31:37;98720.38;;;15.91;32.91
75072;BME280;63651;55.728;38.022;2023-03-14T06:36:38;98723.94;;;15.92;32.80
75072;BME280;63651;55.728;38.022;2023-03-14T06:41:39;98682.41;;;15.73;32.57
75072;BME280;63651;55.728;38.022;2023-03-14T06:46:40;98711.13;;;15.97;32.61
75072;BME280;63651;55.728;38.022;2023-03-14T06:51:41;98701.75;;;15.93;32.74
75072;BME280;63651;55.728;38.022;2023-03-14T06:56:42;98692.81;;;16.03;32.85
75072;BME280;63651;55.728;38.022;2023-03-14T07:01:43;98691.47;;;16.06;32.79
75072;BME280;63651;55.728;38.022;2023-03-14T07:06:44;98697.84;;;16.16;32.81
75072;BME280;63651;55.728;38.022;2023-03-14T07:11:47;98654.78;;;16.12;32.73
75072;BME280;63651;55.728;38.022;2023-03-14T07:16:48;98685.28;;;16.25;32.54
75072;BME280;63651;55.728;38.022;2023-03-14T07:21:49;98671.28;;;16.22;32.96
75072;BME280;63651;55.728;38.022;2023-03-14T07:26:50;98698.81;;;16.37;32.13
75072;BME280;63651;55.728;38.022;2023-03-14T07:31:51;98724.09;;;16.49;32.45
75072;BME280;63651;55.728;38.022;2023-03-14T07:36:52;98703.56;;;16.52;33.59
75072;BME280;63651;55.728;38.022;2023-03-14T07:41:53;98719.75;;;16.95;34.52
75072;BME280;63651;55.728;38.022;2023-03-14T07:46:54;98721.00;;;17.30;34.17
75072;BME280;63651;55.728;38.022;2023-03-14T07:51:55;98719.31;;;17.19;34.51
75072;BME280;63651;55.728;38.022;2023-03-14T07:56:56;98694.31;;;17.15;34.57
75072;BME280;63651;55.728;38.022;2023-03-14T08:01:59;98711.38;;;17.22;34.38
75072;BME280;63651;55.728;38.022;2023-03-14T08:07:00;98702.31;;;17.22;34.50
75072;BME280;63651;55.728;38.022;2023-03-14T08:12:01;98689.41;;;17.17;34.33
75072;BME280;63651;55.728;38.022;2023-03-14T08:17:02;98718.81;;;17.37;33.82
75072;BME280;63651;55.728;38.022;2023-03-14T08:22:04;98688.09;;;17.40;33.76
75072;BME280;63651;55.728;38.022;2023-03-14T08:27:05;98716.91;;;17.38;33.68
75072;BME280;63651;55.728;38.022;2023-03-14T08:32:06;98727.91;;;17.43;33.28
75072;BME280;63651;55.728;38.022;2023-03-14T08:37:07;98693.47;;;17.10;33.40
75072;BME280;63651;55.728;38.022;2023-03-14T08:42:08;98736.13;;;17.43;32.95
75072;BME280;63651;55.728;38.022;2023-03-14T08:47:10;98729.00;;;17.47;32.57
75072;BME280;63651;55.728;38.022;2023-03-14T08:52:11;98735.03;;;17.44;32.65
75072;BME280;63651;55.728;38.022;2023-03-14T08:57:13;98728.72;;;17.43;32.84
75072;BME280;63651;55.728;38.022;2023-03-14T09:02:16;98716.38;;;17.46;32.49
75072;BME280;63651;55.728;38.022;2023-03-14T09:07:18;98716.38;;;17.51;32.31
75072;BME280;63651;55.728;38.022;2023-03-14T09:12:19;98702.41;;;17.63;32.13
75072;BME280;63651;55.728;38.022;2023-03-14T09:17:20;98707.13;;;17.67;32.15
75072;BME280;63651;55.728;38.022;2023-03-14T09:22:21;98692.28;;;17.73;31.87
75072;BME280;63651;55.728;38.022;2023-03-14T09:27:22;98680.19;;;17.69;31.46
75072;BME280;63651;55.728;38.022;2023-03-14T09:32:23;98693.38;;;17.72;31.44
75072;BME280;63651;55.728;38.022;2023-03-14T09:37:24;98692.56;;;17.77;31.59
75072;BME280;63651;55.728;38.022;2023-03-14T09:42:27;98701.38;;;17.79;31.52
75072;BME280;63651;55.728;38.022;2023-03-14T09:47:28;98703.84;;;17.85;31.33
75072;BME280;63651;55.728;38.022;2023-03-14T09:52:37;98693.66;;;17.76;31.31
75072;BME280;63651;55.728;38.022;2023-03-14T09:57:41;98698.34;;;17.85;31.06
75072;BME280;63651;55.728;38.022;2023-03-14T10:03:46;98704.41;;;17.87;31.27
75072;BME280;63651;55.728;38.022;2023-03-14T10:08:15;98695.59;;;17.96;31.32
75072;BME280;63651;55.728;38.022;2023-03-14T10:18:19;98650.81;;;17.90;30.77
75072;BME280;63651;55.728;38.022;2023-03-14T10:23:27;98650.00;;;17.84;30.29
75072;BME280;63651;55.728;38.022;2023-03-14T10:28:31;98685.97;;;18.08;30.33
75072;BME280;63651;55.728;38.022;2023-03-14T10:33:36;98637.63;;;17.82;29.93
75072;BME280;63651;55.728;38.022;2023-03-14T10:38:37;98670.03;;;18.15;30.00
75072;BME280;63651;55.728;38.022;2023-03-14T10:43:38;98613.19;;;17.80;29.62
75072;BME280;63651;55.728;38.022;2023-03-14T10:48:41;98665.66;;;18.09;29.95
75072;BME280;63651;55.728;38.022;2023-03-14T10:53:48;98664.00;;;17.98;30.15
75072;BME280;63651;55.728;38.022;2023-03-14T10:58:58;98673.34;;;18.02;30.01
75072;BME280;63651;55.728;38.022;2023-03-14T11:31:38;98629.09;;;18.29;29.75
75072;BME280;63651;55.728;38.022;2023-03-14T11:42:03;98672.25;;;18.34;30.21
75072;BME280;63651;55.728;38.022;2023-03-14T11:47:24;98673.34;;;18.17;30.54
75072;BME280;63651;55.728;38.022;2023-03-14T11:52:34;98670.31;;;18.29;30.84
75072;BME280;63651;55.728;38.022;2023-03-14T11:57:37;98668.38;;;18.19;30.60
75072;BME280;63651;55.728;38.022;2023-03-14T12:02:48;98675.56;;;18.20;30.76
75072;BME280;63651;55.728;38.022;2023-03-14T12:13:13;98677.44;;;18.20;30.82
75072;BME280;63651;55.728;38.022;2023-03-14T12:18:19;98651.34;;;18.02;31.19
75072;BME280;63651;55.728;38.022;2023-03-14T12:23:21;98705.78;;;18.31;30.98
75072;BME280;63651;55.728;38.022;2023-03-14T12:28:31;98659.31;;;18.09;31.12
75072;BME280;63651;55.728;38.022;2023-03-14T12:33:32;98714.59;;;18.33;31.01
75072;BME280;63651;55.728;38.022;2023-03-14T12:43:37;98707.44;;;18.21;31.16
75072;BME280;63651;55.728;38.022;2023-03-14T12:48:40;98711.00;;;18.17;31.22
75072;BME280;63651;55.728;38.022;2023-03-14T13:04:07;98689.00;;;18.07;31.03
75072;BME280;63651;55.728;38.022;2023-03-14T13:14:35;98687.88;;;18.53;30.71
75072;BME280;63651;55.728;38.022;2023-03-14T13:19:37;98697.25;;;18.47;30.88
75072;BME280;63651;55.728;38.022;2023-03-14T13:24:39;98721.16;;;18.47;30.48
75072;BME280;63651;55.728;38.022;2023-03-14T13:29:41;98719.53;;;18.31;30.67
75072;BME280;63651;55.728;38.022;2023-03-14T13:34:42;98707.16;;;18.23;30.82
75072;BME280;63651;55.728;38.022;2023-03-14T13:39:49;98702.19;;;18.15;30.66
75072;BME280;63651;55.728;38.022;2023-03-14T13:44:53;98698.06;;;18.07;30.76
75072;BME280;63651;55.728;38.022;2023-03-14T13:49:55;98704.13;;;17.99;30.66
75072;BME280;63651;55.728;38.022;2023-03-14T13:54:57;98673.34;;;17.82;30.67
75072;BME280;63651;55.728;38.022;2023-03-14T14:00:06;98693.94;;;17.89;30.91
75072;BME280;63651;55.728;38.022;2023-03-14T14:05:10;98713.19;;;17.84;30.54
75072;BME280;63651;55.728;38.022;2023-03-14T14:10:13;98702.75;;;17.81;30.78
75072;BME280;63651;55.728;38.022;2023-03-14T14:15:21;98669.19;;;17.64;30.77
75072;BME280;63651;55.728;38.022;2023-03-14T14:20:42;98688.44;;;17.74;31.00
75072;BME280;63651;55.728;38.022;2023-03-14T14:25:45;98706.31;;;17.77;30.78
75072;BME280;63651;55.728;38.022;2023-03-14T14:30:46;98720.88;;;17.77;30.63
75072;BME280;63651;55.728;38.022;2023-03-14T14:36:05;98725.81;;;17.70;30.83
75072;BME280;63651;55.728;38.022;2023-03-14T14:41:13;98734.59;;;17.67;30.66
75072;BME280;63651;55.728;38.022;2023-03-14T14:46:17;98709.53;;;17.58;30.86
75072;BME280;63651;55.728;38.022;2023-03-14T14:51:27;98712.25;;;17.48;31.06
75072;BME280;63651;55.728;38.022;2023-03-14T14:56:35;98743.06;;;17.66;31.09
75072;BME280;63651;55.728;38.022;2023-03-14T15:01:38;98746.91;;;17.59;31.17
75072;BME280;63651;55.728;38.022;2023-03-14T15:06:46;98751.00;;;17.57;31.55
75072;BME280;63651;55.728;38.022;2023-03-14T15:11:49;98746.63;;;17.61;31.63
75072;BME280;63651;55.728;38.022;2023-03-14T15:16:50;98746.88;;;17.54;31.91
75072;BME280;63651;55.728;38.022;2023-03-14T15:21:52;98738.63;;;17.54;31.94
75072;BME280;63651;55.728;38.022;2023-03-14T15:26:53;98722.44;;;17.53;31.93
75072;BME280;63651;55.728;38.022;2023-03-14T15:31:54;98693.25;;;17.26;32.09
75072;BME280;63651;55.728;38.022;2023-03-14T15:36:56;98751.00;;;17.52;31.94
75072;BME280;63651;55.728;38.022;2023-03-14T15:41:57;98753.47;;;17.53;32.10
75072;BME280;63651;55.728;38.022;2023-03-14T15:46:58;98764.19;;;17.55;32.40
75072;BME280;63651;55.728;38.022;2023-03-14T15:51:59;98751.28;;;17.55;32.22
75072;BME280;63651;55.728;38.022;2023-03-14T15:57:00;98756.75;;;17.50;32.33
75072;BME280;63651;55.728;38.022;2023-03-14T16:02:01;98746.59;;;17.51;32.48
75072;BME280;63651;55.728;38.022;2023-03-14T16:07:02;98738.91;;;17.48;32.45
75072;BME280;63651;55.728;38.022;2023-03-14T16:12:03;98748.00;;;17.58;32.65
75072;BME280;63651;55.728;38.022;2023-03-14T16:17:05;98760.91;;;17.58;32.58
75072;BME280;63651;55.728;38.022;2023-03-14T16:22:11;98762.84;;;17.63;32.50
75072;BME280;63651;55.728;38.022;2023-03-14T16:27:12;98759.00;;;17.64;32.59
75072;BME280;63651;55.728;38.022;2023-03-14T16:32:13;98732.06;;;17.60;32.36
75072;BME280;63651;55.728;38.022;2023-03-14T16:37:14;98760.63;;;17.59;32.70
75072;BME280;63651;55.728;38.022;2023-03-14T16:42:16;98761.16;;;17.56;32.74
75072;BME280;63651;55.728;38.022;2023-03-14T16:47:17;98791.09;;;17.58;32.90
75072;BME280;63651;55.728;38.022;2023-03-14T16:52:18;98807.03;;;17.56;32.42
75072;BME280;63651;55.728;38.022;2023-03-14T16:57:19;98807.03;;;17.56;32.69
75072;BME280;63651;55.728;38.022;2023-03-14T17:02:20;98805.09;;;17.56;32.66
75072;BME280;63651;55.728;38.022;2023-03-14T17:07:21;98809.78;;;17.56;32.59
75072;BME280;63651;55.728;38.022;2023-03-14T17:12:22;98808.94;;;17.50;32.54
75072;BME280;63651;55.728;38.022;2023-03-14T17:17:23;98822.13;;;17.53;32.07
75072;BME280;63651;55.728;38.022;2023-03-14T17:22:24;98802.53;;;17.30;32.19
75072;BME280;63651;55.728;38.022;2023-03-14T17:27:27;98823.47;;;17.46;32.00
75072;BME280;63651;55.728;38.022;2023-03-14T17:32:28;98813.88;;;17.48;31.90
75072;BME280;63651;55.728;38.022;2023-03-14T17:37:29;98803.94;;;17.42;32.21
75072;BME280;63651;55.728;38.022;2023-03-14T17:42:30;98821.28;;;17.48;32.09
75072;BME280;63651;55.728;38.022;2023-03-14T17:47:31;98817.38;;;17.39;32.12
75072;BME280;63651;55.728;38.022;2023-03-14T17:52:33;98821.25;;;17.43;31.66
75072;BME280;63651;55.728;38.022;2023-03-14T17:57:38;98815.47;;;17.39;31.62
75072;BME280;63651;55.728;38.022;2023-03-14T18:02:39;98814.38;;;17.40;31.49
75072;BME280;63651;55.728;38.022;2023-03-14T18:07:44;98828.66;;;17.42;31.75
75072;BME280;63651;55.728;38.022;2023-03-14T18:12:45;98828.94;;;17.41;31.79
75072;BME280;63651;55.728;38.022;2023-03-14T18:17:46;98832.03;;;17.59;31.98
75072;BME280;63651;55.728;38.022;2023-03-14T18:22:47;98823.47;;;17.51;31.61
75072;BME280;63651;55.728;38.022;2023-03-14T18:27:48;98814.13;;;17.47;31.47
75072;BME280;63651;55.728;38.022;2023-03-14T18:32:49;98824.00;;;17.43;31.55
75072;BME280;63651;55.728;38.022;2023-03-14T18:37:50;98829.19;;;17.39;31.51
75072;BME280;63651;55.728;38.022;2023-03-14T18:42:52;98825.91;;;17.37;31.55
75072;BME280;63651;55.728;38.022;2023-03-14T18:47:54;98847.06;;;17.42;31.52
75072;BME280;63651;55.728;38.022;2023-03-14T18:52:55;98847.31;;;17.40;31.92
75072;BME280;63651;55.728;38.022;2023-03-14T18:57:56;98853.66;;;17.46;31.77
75072;BME280;63651;55.728;38.022;2023-03-14T19:02:57;98842.63;;;17.36;31.40
75072;BME280;63651;55.728;38.022;2023-03-14T19:07:58;98855.28;;;17.42;31.46
75072;BME280;63651;55.728;38.022;2023-03-14T19:12:59;98832.50;;;17.41;31.18
75072;BME280;63651;55.728;38.022;2023-03-14T19:18:00;98842.13;;;17.44;31.34
75072;BME280;63651;55.728;38.022;2023-03-14T19:23:02;98835.25;;;17.41;31.62
75072;BME280;63651;55.728;38.022;2023-03-14T19:28:03;98834.16;;;17.42;31.52
75072;BME280;63651;55.728;38.022;2023-03-14T19:33:04;98844.84;;;17.39;31.32
75072;BME280;63651;55.728;38.022;2023-03-14T19:38:05;98850.56;;;17.32;31.12
75072;BME280;63651;55.728;38.022;2023-03-14T19:43:07;98823.34;;;17.20;31.01
75072;BME280;63651;55.728;38.022;2023-03-14T19:48:10;98864.56;;;17.31;31.29
75072;BME280;63651;55.728;38.022;2023-03-14T19:53:11;98854.66;;;17.24;31.27
75072;BME280;63651;55.728;38.022;2023-03-14T19:58:12;98843.69;;;17.30;31.26
75072;BME280;63651;55.728;38.022;2023-03-14T20:03:13;98859.09;;;17.31;31.09
75072;BME280;63651;55.728;38.022;2023-03-14T20:08:14;98854.09;;;17.22;31.35
75072;BME280;63651;55.728;38.022;2023-03-14T20:13:16;98852.19;;;17.23;31.75
75072;BME280;63651;55.728;38.022;2023-03-14T20:18:17;98857.97;;;17.26;31.57
75072;BME280;63651;55.728;38.022;2023-03-14T20:23:18;98880.44;;;17.23;31.92
75072;BME280;63651;55.728;38.022;2023-03-14T20:28:19;98873.00;;;17.19;32.17
75072;BME280;63651;55.728;38.022;2023-03-14T20:33:21;98858.81;;;17.32;32.06
75072;BME280;63651;55.728;38.022;2023-03-14T20:38:23;98874.44;;;17.26;32.09
75072;BME280;63651;55.728;38.022;2023-03-14T20:43:26;98875.81;;;17.29;32.09
75072;BME280;63651;55.728;38.022;2023-03-14T20:48:29;98883.22;;;17.28;32.33
75072;BME280;63651;55.728;38.022;2023-03-14T20:53:30;98873.91;;;17.30;32.58
75072;BME280;63651;55.728;38.022;2023-03-14T20:58:31;98882.97;;;17.30;32.57
75072;BME280;63651;55.728;38.022;2023-03-14T21:03:33;98881.84;;;17.26;32.34
75072;BME280;63651;55.728;38.022;2023-03-14T21:08:34;98879.66;;;17.28;32.84
75072;BME280;63651;55.728;38.022;2023-03-14T21:13:35;98892.22;;;17.19;33.01
75072;BME280;63651;55.728;38.022;2023-03-14T21:18:36;98878.75;;;17.17;33.01
75072;BME280;63651;55.728;38.022;2023-03-14T21:23:37;98861.72;;;17.10;32.98
75072;BME280;63651;55.728;38.022;2023-03-14T21:28:38;98872.69;;;17.10;32.78
75072;BME280;63651;55.728;38.022;2023-03-14T21:33:39;98898.28;;;17.21;32.85
75072;BME280;63651;55.728;38.022;2023-03-14T21:38:41;98881.25;;;17.19;33.24
75072;BME280;63651;55.728;38.022;2023-03-14T21:43:42;98884.03;;;17.24;33.02
75072;BME280;63651;55.728;38.022;2023-03-14T21:48:45;98884.34;;;17.33;33.06
75072;BME280;63651;55.728;38.022;2023-03-14T21:53:46;98885.19;;;17.38;33.06
75072;BME280;63651;55.728;38.022;2023-03-14T21:58:47;98885.72;;;17.30;32.75
75072;BME280;63651;55.728;38.022;2023-03-14T22:03:48;98895.63;;;17.36;32.99
75072;BME280;63651;55.728;38.022;2023-03-14T22:08:49;98886.00;;;17.34;32.88
75072;BME280;63651;55.728;38.022;2023-03-14T22:13:50;98857.63;;;17.18;32.79
75072;BME280;63651;55.728;38.022;2023-03-14T22:18:51;98895.06;;;17.34;32.63
75072;BME280;63651;55.728;38.022;2023-03-14T22:23:52;98890.63;;;17.28;32.61
75072;BME280;63651;55.728;38.022;2023-03-14T22:28:54;98901.06;;;17.26;32.49
75072;BME280;63651;55.728;38.022;2023-03-14T22:33:55;98908.47;;;17.25;32.01
75072;BME280;63651;55.728;38.022;2023-03-14T22:38:56;98902.69;;;17.22;32.44
75072;BME280;63651;55.728;38.022;2023-03-14T22:43:58;98903.72;;;17.16;32.42
75072;BME280;63651;55.728;38.022;2023-03-14T22:48:59;98882.50;;;17.01;32.11
75072;BME280;63651;55.728;38.022;2023-03-14T22:54:00;98912.03;;;17.26;31.96
75072;BME280;63651;55.728;38.022;2023-03-14T22:59:01;98909.56;;;17.24;31.78
75072;BME280;63651;55.728;38.022;2023-03-14T23:04:02;98898.25;;;17.16;31.90
75072;BME280;63651;55.728;38.022;2023-03-14T23:09:03;98911.97;;;17.16;31.74
75072;BME280;63651;55.728;38.022;2023-03-14T23:14:05;98909.47;;;17.14;31.82
75072;BME280;63651;55.728;38.022;2023-03-14T23:19:07;98907.88;;;17.18;31.74
75072;BME280;63651;55.728;38.022;2023-03-14T23:24:10;98904.22;;;17.08;32.09
75072;BME280;63651;55.728;38.022;2023-03-14T23:29:12;98904.78;;;17.10;31.90
75072;BME280;63651;55.728;38.022;2023-03-14T23:34:15;98921.81;;;17.12;31.79
75072;BME280;63651;55.728;38.022;2023-03-14T23:39:17;98895.47;;;17.11;31.77
75072;BME280;63651;55.728;38.022;2023-03-14T23:44:18;98907.53;;;17.10;31.99
75072;BME280;63651;55.728;38.022;2023-03-14T23:49:19;98900.97;;;17.16;31.84
75072;BME280;63651;55.728;38.022;2023-03-14T23:54:20;98912.19;;;17.09;31.68
75072;BME280;63651;55.728;38.022;2023-03-14T23:59:21;98903.41;;;17.07;31.50
